Time;durP1;ratioP1;P1;durP2;ratioP2;P2;SDS_P1;SDS_P2;PMS_P1;PMS_P2;Temp;Humidity;BMP_temperature;BMP_pressure;BME280_temperature;BME280_humidity;BME280_pressure;Samples;Min_cycle;Max_cycle;Signal;HPM_P1;HPM_P2
2020/12/27 00:01:01;;;;;;;4.22;3.80;;;;;;;;;;5084714;28;20176;-83
2020/12/27 00:03:27;;;;;;;4.97;3.28;;;;;;;;;;5081816;28;20637;-83
2020/12/27 00:05:53;;;;;;;7.60;3.70;;;;;;;;;;5102143;28;20254;-84
2020/12/27 00:08:19;;;;;;;4.20;3.33;;;;;;;;;;5097230;28;20525;-84
2020/12/27 00:10:45;;;;;;;3.50;3.20;;;;;;;;;;5100460;28;20301;-84
2020/12/27 00:13:11;;;;;;;3.87;3.40;;;;;;;;;;5079531;28;20341;-84
2020/12/27 00:15:37;;;;;;;3.55;3.05;;;;;;;;;;5079034;28;20430;-88
2020/12/27 00:18:03;;;;;;;3.03;2.83;;;;;;;;;;5093498;28;20183;-83
2020/12/27 00:20:30;;;;;;;3.22;2.80;;;;;;;;;;5092098;28;20590;-85
2020/12/27 00:22:56;;;;;;;3.40;3.10;;;;;;;;;;5098771;28;20183;-84
2020/12/27 00:25:22;;;;;;;3.63;3.30;;;;;;;;;;5082517;28;20184;-84
2020/12/27 00:27:48;;;;;;;3.08;2.80;;;;;;;;;;5082962;28;20490;-86
2020/12/27 00:30:14;;;;;;;2.80;2.50;;;;;;;;;;5099389;28;20229;-84
2020/12/27 00:32:40;;;;;;;2.97;2.75;;;;;;;;;;5087137;28;20200;-85
2020/12/27 00:35:06;;;;;;;2.67;2.47;;;;;;;;;;5096994;28;20593;-84
2020/12/27 00:37:32;;;;;;;2.92;2.63;;;;;;;;;;5086211;28;20418;-84
2020/12/27 00:39:59;;;;;;;3.05;2.78;;;;;;;;;;5095003;28;20243;-85
2020/12/27 00:42:25;;;;;;;3.38;2.42;;;;;;;;;;5079896;28;20217;-85
2020/12/27 00:44:51;;;;;;;2.13;1.80;;;;;;;;;;5082218;28;20188;-85
2020/12/27 00:47:17;;;;;;;3.40;2.40;;;;;;;;;;5101756;28;20191;-84
2020/12/27 00:49:43;;;;;;;2.13;2.00;;;;;;;;;;5090135;28;20184;-85
2020/12/27 00:52:09;;;;;;;3.45;2.70;;;;;;;;;;5096333;28;20545;-88
2020/12/27 00:54:35;;;;;;;2.63;2.20;;;;;;;;;;5081212;28;20219;-85
2020/12/27 00:57:01;;;;;;;2.30;2.20;;;;;;;;;;5081422;28;20456;-83
2020/12/27 00:59:26;;;;;;;2.75;2.00;;;;;;;;;;5090727;28;20485;-87
2020/12/27 01:01:56;;;;;;;3.40;2.40;;;;;;;;;;5089518;28;20207;-83
2020/12/27 01:04:22;;;;;;;2.58;2.10;;;;;;;;;;5086434;28;20918;-82
2020/12/27 01:06:48;;;;;;;3.55;2.50;;;;;;;;;;5083649;28;20207;-84
2020/12/27 01:09:15;;;;;;;1.95;1.75;;;;;;;;;;5079494;28;20192;-85
2020/12/27 01:11:41;;;;;;;1.60;1.45;;;;;;;;;;5083274;28;20275;-85
2020/12/27 01:14:07;;;;;;;1.67;1.58;;;;;;;;;;5097257;28;20184;-85
2020/12/27 01:16:33;;;;;;;2.22;2.03;;;;;;;;;;5099305;28;20221;-88
2020/12/27 01:18:59;;;;;;;1.80;1.70;;;;;;;;;;5082255;28;20176;-87
2020/12/27 01:21:28;;;;;;;1.80;1.70;;;;;;;;;;5080123;28;20190;-85
2020/12/27 01:23:55;;;;;;;1.90;1.80;;;;;;;;;;5072430;28;20184;-84
2020/12/27 01:26:28;;;;;;;1.92;1.60;;;;;;;;;;5100055;28;20263;-84
2020/12/27 01:28:54;;;;;;;2.45;1.65;;;;;;;;;;5080087;28;20176;-85
2020/12/27 01:31:21;;;;;;;1.60;1.50;;;;;;;;;;5081284;28;20207;-86
2020/12/27 01:33:47;;;;;;;1.42;1.33;;;;;;;;;;5085103;28;20744;-87
2020/12/27 01:36:13;;;;;;;1.95;1.35;;;;;;;;;;5080203;28;20184;-85
2020/12/27 01:38:39;;;;;;;1.30;1.10;;;;;;;;;;5098817;28;20183;-84
2020/12/27 01:41:05;;;;;;;2.28;1.50;;;;;;;;;;5078834;28;20480;-87
2020/12/27 01:43:31;;;;;;;1.50;1.40;;;;;;;;;;5098197;28;20190;-84
2020/12/27 01:45:57;;;;;;;1.50;1.40;;;;;;;;;;5085599;28;20196;-85
2020/12/27 01:48:23;;;;;;;1.75;1.00;;;;;;;;;;5085034;28;20184;-83
2020/12/27 01:50:50;;;;;;;1.42;1.20;;;;;;;;;;5093397;28;20206;-86
2020/12/27 01:53:16;;;;;;;1.05;0.95;;;;;;;;;;5095387;28;20176;-84
2020/12/27 01:55:42;;;;;;;1.33;1.10;;;;;;;;;;5082536;28;20250;-84
2020/12/27 01:58:18;;;;;;;1.13;1.03;;;;;;;;;;5094360;28;20182;-82
2020/12/27 02:00:44;;;;;;;1.63;1.00;;;;;;;;;;5085354;28;20429;-85
2020/12/27 02:03:11;;;;;;;1.10;1.00;;;;;;;;;;5097142;28;20184;-84
2020/12/27 02:05:37;;;;;;;1.27;1.08;;;;;;;;;;5080240;28;20206;-88
2020/12/27 02:08:03;;;;;;;1.60;1.35;;;;;;;;;;5077962;28;21144;-83
2020/12/27 02:10:31;;;;;;;1.60;1.15;;;;;;;;;;5084532;28;20219;-83
2020/12/27 02:12:57;;;;;;;1.75;1.33;;;;;;;;;;5082773;28;20214;-80
2020/12/27 02:15:23;;;;;;;1.30;1.20;;;;;;;;;;5078924;28;20184;-82
2020/12/27 02:17:49;;;;;;;1.77;1.10;;;;;;;;;;5098513;28;20172;-85
2020/12/27 02:20:16;;;;;;;2.67;1.50;;;;;;;;;;5076361;28;20583;-84
2020/12/27 02:22:42;;;;;;;1.30;1.20;;;;;;;;;;5098846;28;20417;-85
2020/12/27 02:25:08;;;;;;;1.98;1.20;;;;;;;;;;5095303;28;20206;-84
2020/12/27 02:27:34;;;;;;;1.52;1.10;;;;;;;;;;5094288;28;20188;-84
2020/12/27 02:30:00;;;;;;;1.38;1.20;;;;;;;;;;5097532;28;20243;-81
2020/12/27 02:32:26;;;;;;;2.00;1.70;;;;;;;;;;5078669;28;20234;-83
2020/12/27 02:34:52;;;;;;;1.15;1.05;;;;;;;;;;5076105;28;20175;-85
2020/12/27 02:37:18;;;;;;;1.65;1.27;;;;;;;;;;5080898;28;20190;-82
2020/12/27 02:39:44;;;;;;;2.28;1.00;;;;;;;;;;5088473;28;20181;-86
2020/12/27 02:42:10;;;;;;;1.45;1.27;;;;;;;;;;5080995;28;20190;-86
2020/12/27 02:44:45;;;;;;;1.80;1.37;;;;;;;;;;5082206;28;20188;-83
2020/12/27 02:47:12;;;;;;;1.52;1.42;;;;;;;;;;5078995;28;20438;-84
2020/12/27 02:49:38;;;;;;;1.65;1.52;;;;;;;;;;5099235;28;20183;-84
2020/12/27 02:52:04;;;;;;;1.60;1.50;;;;;;;;;;5094277;28;20256;-84
2020/12/27 02:54:30;;;;;;;1.58;1.30;;;;;;;;;;5079000;28;20450;-84
2020/12/27 02:56:56;;;;;;;2.37;1.40;;;;;;;;;;5098570;28;20180;-84
2020/12/27 02:59:22;;;;;;;1.30;1.20;;;;;;;;;;5077077;28;20447;-84
2020/12/27 03:01:48;;;;;;;1.87;1.77;;;;;;;;;;5079040;28;20429;-84
2020/12/27 03:04:14;;;;;;;1.43;1.00;;;;;;;;;;5083790;28;20432;-85
2020/12/27 03:06:40;;;;;;;1.42;1.25;;;;;;;;;;5098871;28;20444;-85
2020/12/27 03:09:06;;;;;;;1.40;1.30;;;;;;;;;;5083421;28;20192;-84
2020/12/27 03:11:32;;;;;;;1.70;1.38;;;;;;;;;;5081078;28;20198;-85
2020/12/27 03:13:58;;;;;;;1.30;1.20;;;;;;;;;;5100292;28;20172;-81
2020/12/27 03:16:24;;;;;;;1.88;1.23;;;;;;;;;;5083109;28;20421;-85
2020/12/27 03:18:50;;;;;;;1.97;1.10;;;;;;;;;;5085153;28;20184;-85
2020/12/27 03:21:16;;;;;;;1.52;1.10;;;;;;;;;;5095376;28;20449;-85
2020/12/27 03:23:42;;;;;;;1.45;1.02;;;;;;;;;;5088062;28;20191;-85
2020/12/27 03:26:08;;;;;;;0.93;0.93;;;;;;;;;;5091956;28;20188;-83
2020/12/27 03:28:34;;;;;;;1.98;1.20;;;;;;;;;;5101341;28;20428;-85
2020/12/27 03:31:00;;;;;;;1.42;1.10;;;;;;;;;;5097290;28;20270;-88
2020/12/27 03:33:26;;;;;;;1.70;1.30;;;;;;;;;;5082615;28;20321;-85
2020/12/27 03:35:52;;;;;;;1.35;1.10;;;;;;;;;;5102184;28;20198;-85
2020/12/27 03:38:18;;;;;;;1.13;0.90;;;;;;;;;;5080160;28;20219;-88
2020/12/27 03:40:44;;;;;;;1.20;1.10;;;;;;;;;;5082996;28;20179;-85
2020/12/27 03:43:10;;;;;;;2.53;1.40;;;;;;;;;;5082758;28;20440;-80
2020/12/27 03:45:38;;;;;;;1.52;1.42;;;;;;;;;;5087623;28;20442;-84
2020/12/27 03:48:04;;;;;;;1.33;1.23;;;;;;;;;;5100658;28;20187;-85
2020/12/27 03:50:30;;;;;;;1.90;1.40;;;;;;;;;;5099838;28;20188;-85
2020/12/27 03:52:56;;;;;;;1.10;1.00;;;;;;;;;;5081077;28;20465;-88
2020/12/27 03:55:22;;;;;;;2.20;1.40;;;;;;;;;;5083329;28;20195;-84
2020/12/27 03:57:48;;;;;;;1.40;1.30;;;;;;;;;;5082935;28;20429;-82
2020/12/27 04:00:14;;;;;;;2.97;1.53;;;;;;;;;;5081520;28;20461;-86
2020/12/27 04:02:40;;;;;;;2.17;1.15;;;;;;;;;;5101312;28;20527;-86
2020/12/27 04:05:06;;;;;;;1.50;1.40;;;;;;;;;;5098975;28;20250;-86
2020/12/27 04:07:32;;;;;;;1.50;1.40;;;;;;;;;;5100766;28;20406;-86
2020/12/27 04:09:59;;;;;;;4.03;1.25;;;;;;;;;;5082950;28;20215;-83
2020/12/27 04:12:25;;;;;;;2.33;1.40;;;;;;;;;;5078722;28;20212;-84
2020/12/27 04:14:51;;;;;;;1.75;1.60;;;;;;;;;;5083974;28;20206;-85
2020/12/27 04:17:17;;;;;;;3.25;1.85;;;;;;;;;;5085048;28;20255;-86
2020/12/27 04:19:43;;;;;;;3.55;2.10;;;;;;;;;;5081901;28;20198;-83
2020/12/27 04:22:09;;;;;;;1.95;1.70;;;;;;;;;;5082662;28;20178;-84
2020/12/27 04:24:35;;;;;;;1.95;1.40;;;;;;;;;;5096857;28;20184;-85
2020/12/27 04:27:01;;;;;;;1.98;1.80;;;;;;;;;;5082408;28;20184;-85
2020/12/27 04:29:27;;;;;;;2.25;1.40;;;;;;;;;;5090644;28;20279;-83
2020/12/27 04:31:53;;;;;;;2.13;1.42;;;;;;;;;;5086522;28;20214;-84
2020/12/27 04:34:20;;;;;;;1.70;1.30;;;;;;;;;;5097429;28;20660;-85
2020/12/27 04:36:46;;;;;;;2.05;1.70;;;;;;;;;;5095953;28;20589;-85
2020/12/27 04:39:12;;;;;;;2.38;1.20;;;;;;;;;;5098125;28;20197;-85
2020/12/27 04:41:38;;;;;;;1.13;1.02;;;;;;;;;;5100055;28;20628;-85
2020/12/27 04:44:04;;;;;;;1.50;1.35;;;;;;;;;;5080114;28;20188;-83
2020/12/27 04:46:30;;;;;;;3.97;1.30;;;;;;;;;;5086405;28;20187;-85
2020/12/27 04:48:57;;;;;;;1.30;1.20;;;;;;;;;;5083405;28;20332;-85
2020/12/27 04:51:24;;;;;;;1.05;0.95;;;;;;;;;;5096244;28;20229;-86
2020/12/27 04:53:50;;;;;;;2.55;1.20;;;;;;;;;;5101173;28;20175;-87
2020/12/27 04:56:19;;;;;;;1.30;1.20;;;;;;;;;;5089159;28;20583;-87
2020/12/27 04:58:45;;;;;;;1.40;1.23;;;;;;;;;;5099435;28;20171;-86
2020/12/27 05:01:11;;;;;;;0.90;0.90;;;;;;;;;;5081852;28;20184;-86
2020/12/27 05:03:37;;;;;;;1.00;0.90;;;;;;;;;;5082056;28;20185;-85
2020/12/27 05:06:03;;;;;;;1.02;0.98;;;;;;;;;;5081300;28;20183;-85
2020/12/27 05:08:29;;;;;;;3.33;1.77;;;;;;;;;;5099047;28;20184;-83
2020/12/27 05:10:55;;;;;;;1.37;1.20;;;;;;;;;;5079774;28;20247;-85
2020/12/27 05:13:21;;;;;;;1.23;1.13;;;;;;;;;;5096600;28;20422;-84
2020/12/27 05:15:47;;;;;;;1.27;1.17;;;;;;;;;;5080926;28;20180;-85
2020/12/27 05:18:13;;;;;;;3.42;1.20;;;;;;;;;;5079761;28;20189;-81
2020/12/27 05:20:43;;;;;;;2.15;1.25;;;;;;;;;;5099038;28;20188;-83
2020/12/27 05:23:09;;;;;;;1.20;1.10;;;;;;;;;;5096189;28;20198;-85
2020/12/27 05:25:38;;;;;;;1.00;1.00;;;;;;;;;;5103978;28;20184;-85
2020/12/27 05:28:08;;;;;;;1.23;0.93;;;;;;;;;;5085511;28;20521;-85
2020/12/27 05:30:34;;;;;;;2.25;1.10;;;;;;;;;;5102350;28;20191;-88
2020/12/27 05:33:00;;;;;;;1.83;1.08;;;;;;;;;;5094001;28;20748;-86
2020/12/27 05:35:27;;;;;;;1.80;1.30;;;;;;;;;;5084181;28;20224;-85
2020/12/27 05:37:53;;;;;;;1.42;1.33;;;;;;;;;;5082398;28;20176;-85
2020/12/27 05:40:20;;;;;;;2.60;1.90;;;;;;;;;;5085241;28;20723;-84
2020/12/27 05:42:46;;;;;;;1.45;1.35;;;;;;;;;;5081913;28;20213;-84
2020/12/27 05:45:14;;;;;;;1.02;0.90;;;;;;;;;;5085885;28;20247;-88
2020/12/27 05:47:40;;;;;;;1.63;1.15;;;;;;;;;;5089050;28;20175;-88
2020/12/27 05:50:07;;;;;;;1.10;1.00;;;;;;;;;;5100808;28;20184;-86
2020/12/27 05:52:40;;;;;;;1.42;1.00;;;;;;;;;;5085234;28;20233;-86
2020/12/27 05:55:09;;;;;;;1.45;1.00;;;;;;;;;;5102072;28;20239;-84
2020/12/27 05:57:35;;;;;;;1.10;1.00;;;;;;;;;;5081043;28;20187;-83
2020/12/27 06:00:03;;;;;;;1.00;1.00;;;;;;;;;;5085312;28;20171;-85
2020/12/27 06:02:39;;;;;;;1.30;0.90;;;;;;;;;;5082444;28;20191;-86
2020/12/27 06:05:08;;;;;;;1.30;1.20;;;;;;;;;;5077373;28;20192;-85
2020/12/27 06:07:34;;;;;;;1.83;0.90;;;;;;;;;;5085308;28;20172;-85
2020/12/27 06:10:03;;;;;;;1.58;1.10;;;;;;;;;;5093784;28;20289;-84
2020/12/27 06:12:38;;;;;;;0.90;0.90;;;;;;;;;;5097860;28;20207;-84
2020/12/27 06:15:06;;;;;;;1.65;1.15;;;;;;;;;;5084930;28;20566;-86
2020/12/27 06:17:49;;;;;;;1.73;1.10;;;;;;;;;;5100661;28;20196;-87
2020/12/27 06:20:17;;;;;;;1.05;0.95;;;;;;;;;;5086708;28;20225;-84
2020/12/27 06:22:45;;;;;;;1.58;1.10;;;;;;;;;;5099685;28;20175;-81
2020/12/27 06:25:11;;;;;;;1.73;1.20;;;;;;;;;;5098028;28;20236;-88
2020/12/27 06:27:37;;;;;;;0.95;0.95;;;;;;;;;;5080860;28;20188;-86
2020/12/27 06:30:08;;;;;;;1.40;1.13;;;;;;;;;;5081840;28;20176;-86
2020/12/27 06:32:36;;;;;;;0.88;0.88;;;;;;;;;;5082761;28;20204;-87
2020/12/27 06:35:07;;;;;;;0.90;0.90;;;;;;;;;;5077685;28;20168;-83
2020/12/27 06:37:40;;;;;;;1.35;1.08;;;;;;;;;;5084654;28;20648;-86
2020/12/27 06:40:06;;;;;;;2.97;1.13;;;;;;;;;;5082407;28;20187;-85
2020/12/27 06:42:32;;;;;;;2.88;0.90;;;;;;;;;;5084139;28;20195;-83
2020/12/27 06:44:58;;;;;;;1.40;1.00;;;;;;;;;;5099785;28;20479;-85
2020/12/27 06:47:45;;;;;;;0.88;0.88;;;;;;;;;;5099928;28;20180;-86
2020/12/27 06:50:19;;;;;;;1.25;0.85;;;;;;;;;;5083679;28;20203;-86
2020/12/27 06:52:45;;;;;;;3.80;1.70;;;;;;;;;;5082278;28;20212;-87
2020/12/27 06:55:11;;;;;;;0.80;0.80;;;;;;;;;;5080288;28;20314;-87
2020/12/27 06:57:47;;;;;;;0.98;0.88;;;;;;;;;;5083721;28;20190;-84
2020/12/27 07:00:20;;;;;;;0.73;0.73;;;;;;;;;;5085060;28;20175;-86
2020/12/27 07:02:46;;;;;;;0.68;0.68;;;;;;;;;;5085319;28;20184;-86
2020/12/27 07:05:34;;;;;;;1.77;0.80;;;;;;;;;;5083058;28;20180;-86
2020/12/27 07:08:02;;;;;;;0.90;0.90;;;;;;;;;;5085863;28;20176;-86
2020/12/27 07:10:28;;;;;;;0.85;0.85;;;;;;;;;;5100647;28;20239;-86
2020/12/27 07:13:02;;;;;;;1.00;0.90;;;;;;;;;;5085044;28;20210;-85
2020/12/27 07:15:28;;;;;;;0.73;0.73;;;;;;;;;;5103593;28;20529;-84
2020/12/27 07:17:54;;;;;;;1.02;0.70;;;;;;;;;;5102499;28;20176;-83
2020/12/27 07:20:22;;;;;;;1.02;0.93;;;;;;;;;;5087059;28;20180;-86
2020/12/27 07:22:54;;;;;;;1.65;1.30;;;;;;;;;;5084589;28;20176;-82
2020/12/27 07:25:21;;;;;;;1.52;0.80;;;;;;;;;;5102218;28;20211;-82
2020/12/27 07:27:48;;;;;;;1.05;0.95;;;;;;;;;;5080506;28;20187;-86
2020/12/27 07:30:15;;;;;;;1.17;1.05;;;;;;;;;;5102948;28;20194;-83
2020/12/27 07:32:43;;;;;;;0.90;0.90;;;;;;;;;;5104016;28;20199;-86
2020/12/27 07:35:10;;;;;;;1.65;0.85;;;;;;;;;;5080852;28;20175;-85
2020/12/27 07:37:36;;;;;;;1.05;0.90;;;;;;;;;;5102174;28;20176;-81
2020/12/27 07:40:04;;;;;;;1.20;1.10;;;;;;;;;;5085791;28;20679;-89
2020/12/27 07:42:31;;;;;;;2.40;0.82;;;;;;;;;;5084206;28;20192;-87
2020/12/27 07:45:01;;;;;;;1.20;1.00;;;;;;;;;;5092370;28;20184;-83
2020/12/27 07:47:27;;;;;;;2.38;0.95;;;;;;;;;;5097239;28;20194;-84
2020/12/27 07:50:07;;;;;;;1.80;1.10;;;;;;;;;;5087791;28;20262;-86
2020/12/27 07:52:43;;;;;;;2.35;1.17;;;;;;;;;;5087450;28;20223;-84
2020/12/27 07:55:09;;;;;;;1.45;1.35;;;;;;;;;;5081807;28;20176;-86
2020/12/27 07:57:36;;;;;;;2.10;1.00;;;;;;;;;;5100018;28;20214;-85
2020/12/27 08:00:05;;;;;;;1.23;0.90;;;;;;;;;;5100047;28;20180;-88
2020/12/27 08:02:32;;;;;;;1.80;1.35;;;;;;;;;;5082249;28;20229;-83
2020/12/27 08:05:01;;;;;;;1.13;0.90;;;;;;;;;;5098389;28;20201;-84
2020/12/27 08:07:27;;;;;;;1.70;0.93;;;;;;;;;;5099379;28;20180;-85
2020/12/27 08:09:52;;;;;;;3.57;1.10;;;;;;;;;;5079756;28;20235;-88
2020/12/27 08:12:18;;;;;;;0.93;0.77;;;;;;;;;;5061579;28;20486;-88
2020/12/27 08:14:44;;;;;;;0.95;0.88;;;;;;;;;;5069043;28;20426;-83
2020/12/27 08:17:14;;;;;;;1.73;1.10;;;;;;;;;;5062758;28;20190;-85
2020/12/27 08:19:40;;;;;;;2.55;1.30;;;;;;;;;;5072708;28;20681;-84
2020/12/27 08:22:06;;;;;;;2.90;1.40;;;;;;;;;;5055838;28;20204;-87
2020/12/27 08:24:32;;;;;;;1.83;0.90;;;;;;;;;;5061018;28;20192;-86
2020/12/27 08:26:59;;;;;;;2.90;1.43;;;;;;;;;;5063222;28;20220;-86
2020/12/27 08:29:26;;;;;;;2.78;1.38;;;;;;;;;;5062123;28;20443;-86
2020/12/27 08:31:52;;;;;;;1.10;1.00;;;;;;;;;;5066324;28;20254;-86
2020/12/27 08:34:25;;;;;;;1.20;1.00;;;;;;;;;;5074644;28;20187;-88
2020/12/27 08:36:52;;;;;;;1.42;0.90;;;;;;;;;;5065746;28;20181;-86
2020/12/27 08:39:37;;;;;;;2.50;1.20;;;;;;;;;;5053714;28;20208;-92
2020/12/27 08:42:05;;;;;;;1.70;1.00;;;;;;;;;;5054328;28;20213;-87
2020/12/27 08:44:47;;;;;;;1.75;1.20;;;;;;;;;;5058837;28;20191;-88
2020/12/27 08:47:19;;;;;;;2.13;1.10;;;;;;;;;;5057492;28;20196;-87
2020/12/27 08:49:54;;;;;;;2.95;1.20;;;;;;;;;;5061458;28;20227;-86
2020/12/27 08:52:21;;;;;;;5.68;1.10;;;;;;;;;;5066254;28;20290;-86
2020/12/27 08:54:58;;;;;;;2.05;1.05;;;;;;;;;;5060637;28;20177;-88
2020/12/27 08:57:25;;;;;;;1.75;0.82;;;;;;;;;;5056248;28;20197;-89
2020/12/27 08:59:59;;;;;;;2.17;1.10;;;;;;;;;;5059848;28;20272;-86
2020/12/27 09:02:25;;;;;;;2.15;1.13;;;;;;;;;;5061590;28;20196;-88
2020/12/27 09:05:01;;;;;;;1.85;1.10;;;;;;;;;;5058064;28;20236;-87
2020/12/27 09:07:47;;;;;;;1.88;1.20;;;;;;;;;;5064044;28;20183;-88
2020/12/27 09:10:14;;;;;;;0.80;0.80;;;;;;;;;;5068326;28;20216;-87
2020/12/27 09:12:55;;;;;;;2.38;1.05;;;;;;;;;;5080709;28;20208;-88
2020/12/27 09:15:32;;;;;;;1.25;1.15;;;;;;;;;;5077804;28;20248;-90
2020/12/27 09:17:58;;;;;;;3.63;1.23;;;;;;;;;;5086962;28;20262;-90
2020/12/27 09:20:24;;;;;;;1.30;1.02;;;;;;;;;;5081881;28;20181;-86
2020/12/27 09:22:51;;;;;;;2.55;1.20;;;;;;;;;;5074348;28;20204;-85
2020/12/27 09:25:18;;;;;;;4.25;1.30;;;;;;;;;;5079520;28;20188;-87
2020/12/27 09:27:45;;;;;;;3.15;1.00;;;;;;;;;;5105757;28;20637;-88
2020/12/27 09:30:14;;;;;;;2.97;1.33;;;;;;;;;;5079668;28;20192;-90
2020/12/27 09:32:40;;;;;;;2.85;1.15;;;;;;;;;;5081986;28;20291;-84
2020/12/27 09:35:06;;;;;;;2.10;1.10;;;;;;;;;;5075756;28;20225;-88
2020/12/27 09:37:33;;;;;;;3.83;1.30;;;;;;;;;;5073064;28;20427;-87
2020/12/27 09:39:59;;;;;;;1.10;1.00;;;;;;;;;;5085988;28;20505;-87
2020/12/27 09:42:27;;;;;;;4.65;1.30;;;;;;;;;;5080341;28;20218;-85
2020/12/27 09:44:53;;;;;;;1.13;1.00;;;;;;;;;;5082261;28;20244;-85
2020/12/27 09:47:29;;;;;;;1.55;1.15;;;;;;;;;;5077637;28;20703;-88
2020/12/27 09:50:04;;;;;;;2.45;1.55;;;;;;;;;;5076351;28;20264;-87
2020/12/27 09:52:30;;;;;;;1.85;1.10;;;;;;;;;;5078502;28;20210;-87
2020/12/27 09:54:56;;;;;;;1.23;0.95;;;;;;;;;;5072021;28;20188;-87
2020/12/27 09:57:27;;;;;;;2.65;1.00;;;;;;;;;;5069846;28;20388;-85
2020/12/27 09:59:53;;;;;;;2.95;1.00;;;;;;;;;;5077066;28;20181;-89
2020/12/27 10:02:22;;;;;;;1.50;1.05;;;;;;;;;;5080559;28;20222;-88
2020/12/27 10:04:49;;;;;;;1.20;1.10;;;;;;;;;;5075619;28;20540;-87
2020/12/27 10:07:15;;;;;;;3.30;1.00;;;;;;;;;;5080255;28;20191;-88
2020/12/27 10:09:41;;;;;;;1.83;0.95;;;;;;;;;;5077327;28;20216;-89
2020/12/27 10:12:07;;;;;;;1.05;0.95;;;;;;;;;;5067378;28;20204;-84
2020/12/27 10:14:33;;;;;;;3.42;1.00;;;;;;;;;;5079469;28;20193;-88
2020/12/27 10:17:00;;;;;;;1.30;1.20;;;;;;;;;;5077730;28;20180;-86
2020/12/27 10:19:29;;;;;;;1.63;0.90;;;;;;;;;;5069592;28;20181;-85
2020/12/27 10:21:56;;;;;;;1.20;1.00;;;;;;;;;;5076375;28;20234;-89
2020/12/27 10:24:26;;;;;;;3.03;1.08;;;;;;;;;;5077584;28;20192;-84
2020/12/27 10:26:53;;;;;;;1.92;0.90;;;;;;;;;;5079012;28;20206;-86
2020/12/27 10:29:19;;;;;;;3.15;1.42;;;;;;;;;;5079794;28;20199;-86
2020/12/27 10:31:51;;;;;;;1.63;0.80;;;;;;;;;;5078344;28;20653;-86
2020/12/27 10:34:18;;;;;;;1.90;0.90;;;;;;;;;;5093977;28;20171;-85
2020/12/27 10:36:45;;;;;;;1.05;0.90;;;;;;;;;;5078174;28;20181;-88
2020/12/27 10:39:11;;;;;;;1.33;0.85;;;;;;;;;;5075344;28;20189;-88
2020/12/27 10:41:40;;;;;;;1.40;0.90;;;;;;;;;;5093483;28;20188;-86
2020/12/27 10:44:07;;;;;;;1.13;1.00;;;;;;;;;;5073997;28;20678;-87
2020/12/27 10:46:33;;;;;;;1.70;1.00;;;;;;;;;;5082001;28;20172;-87
2020/12/27 10:48:59;;;;;;;1.10;1.00;;;;;;;;;;5075188;28;20275;-87
2020/12/27 10:51:25;;;;;;;2.05;1.25;;;;;;;;;;5076879;28;20205;-83
2020/12/27 10:53:51;;;;;;;1.13;0.77;;;;;;;;;;5079549;28;20184;-85
2020/12/27 10:56:17;;;;;;;2.10;0.80;;;;;;;;;;5079766;28;20265;-84
2020/12/27 10:58:43;;;;;;;1.00;0.80;;;;;;;;;;5076125;28;20176;-86
2020/12/27 11:01:09;;;;;;;1.07;0.90;;;;;;;;;;5079258;28;20177;-88
2020/12/27 11:03:35;;;;;;;0.80;0.80;;;;;;;;;;5076427;28;20445;-86
2020/12/27 11:06:01;;;;;;;1.50;0.93;;;;;;;;;;5072887;28;20474;-88
2020/12/27 11:08:27;;;;;;;1.23;1.05;;;;;;;;;;5079964;28;20576;-85
2020/12/27 11:10:53;;;;;;;1.00;0.90;;;;;;;;;;5073837;28;20219;-85
2020/12/27 11:13:19;;;;;;;3.20;0.90;;;;;;;;;;5078200;28;20466;-84
2020/12/27 11:15:45;;;;;;;1.85;0.98;;;;;;;;;;5081000;28;20859;-86
2020/12/27 11:18:11;;;;;;;1.27;0.80;;;;;;;;;;5077987;28;20192;-87
2020/12/27 11:20:37;;;;;;;2.00;0.80;;;;;;;;;;5079257;28;20193;-88
2020/12/27 11:23:03;;;;;;;1.20;0.90;;;;;;;;;;5080137;28;20306;-87
2020/12/27 11:25:29;;;;;;;0.90;0.67;;;;;;;;;;5080879;28;20799;-86
2020/12/27 11:27:55;;;;;;;1.30;0.88;;;;;;;;;;5076991;28;20484;-85
2020/12/27 11:30:21;;;;;;;2.03;0.80;;;;;;;;;;5109877;28;20188;-88
2020/12/27 11:32:47;;;;;;;1.08;0.70;;;;;;;;;;5078412;28;20204;-87
2020/12/27 11:35:13;;;;;;;1.30;0.93;;;;;;;;;;5089563;28;20191;-88
2020/12/27 11:37:39;;;;;;;1.08;0.73;;;;;;;;;;5075536;28;20173;-86
2020/12/27 11:40:05;;;;;;;0.80;0.80;;;;;;;;;;5088566;28;20645;-87
2020/12/27 11:42:31;;;;;;;2.15;0.80;;;;;;;;;;5078918;28;20446;-86
2020/12/27 11:44:57;;;;;;;0.90;0.70;;;;;;;;;;5076552;28;20252;-87
2020/12/27 11:47:23;;;;;;;2.80;1.00;;;;;;;;;;5093919;28;20184;-85
2020/12/27 11:49:49;;;;;;;0.80;0.80;;;;;;;;;;5084368;28;20195;-91
2020/12/27 11:52:15;;;;;;;2.20;1.55;;;;;;;;;;5081556;28;20212;-85
2020/12/27 11:54:41;;;;;;;1.08;0.77;;;;;;;;;;5077647;28;20177;-87
2020/12/27 11:57:07;;;;;;;0.97;0.80;;;;;;;;;;5080131;28;20247;-88
2020/12/27 11:59:34;;;;;;;1.47;0.90;;;;;;;;;;5096005;28;20435;-86
2020/12/27 12:02:00;;;;;;;1.55;1.00;;;;;;;;;;5078024;28;20459;-88
2020/12/27 12:04:26;;;;;;;1.00;0.90;;;;;;;;;;5080327;28;20204;-83
2020/12/27 12:06:52;;;;;;;1.52;0.70;;;;;;;;;;5077621;28;20351;-86
2020/12/27 12:09:18;;;;;;;0.90;0.80;;;;;;;;;;5083257;28;20789;-87
2020/12/27 12:11:44;;;;;;;1.42;0.90;;;;;;;;;;5074239;28;20279;-86
2020/12/27 12:14:10;;;;;;;1.30;0.70;;;;;;;;;;5084889;28;20188;-89
2020/12/27 12:16:36;;;;;;;1.10;0.93;;;;;;;;;;5081507;28;20176;-90
2020/12/27 12:19:03;;;;;;;2.75;1.02;;;;;;;;;;5084410;28;20191;-91
2020/12/27 12:21:30;;;;;;;4.30;0.90;;;;;;;;;;5076993;28;20279;-91
2020/12/27 12:23:56;;;;;;;1.42;0.80;;;;;;;;;;5079046;28;20189;-86
2020/12/27 12:26:23;;;;;;;2.33;0.90;;;;;;;;;;5082924;28;20198;-84
2020/12/27 12:28:49;;;;;;;0.80;0.70;;;;;;;;;;5077819;28;20176;-87
2020/12/27 12:31:18;;;;;;;3.43;1.13;;;;;;;;;;5084330;28;20184;-88
2020/12/27 12:33:44;;;;;;;1.00;0.77;;;;;;;;;;5080911;28;20438;-87
2020/12/27 12:36:14;;;;;;;1.10;0.80;;;;;;;;;;5083270;28;20432;-86
2020/12/27 12:38:41;;;;;;;3.35;1.10;;;;;;;;;;5098128;28;20657;-91
2020/12/27 12:41:11;;;;;;;1.98;0.77;;;;;;;;;;5084184;28;20183;-86
2020/12/27 12:43:37;;;;;;;4.90;0.88;;;;;;;;;;5101457;28;20176;-86
2020/12/27 12:46:03;;;;;;;1.67;0.80;;;;;;;;;;5085857;28;20179;-88
2020/12/27 12:48:29;;;;;;;1.10;0.90;;;;;;;;;;5080846;28;20199;-87
2020/12/27 12:50:55;;;;;;;1.73;1.27;;;;;;;;;;5080760;28;20458;-90
2020/12/27 12:53:21;;;;;;;2.72;0.98;;;;;;;;;;5101752;28;20458;-90
2020/12/27 12:55:47;;;;;;;1.70;1.00;;;;;;;;;;5098779;28;20629;-88
2020/12/27 12:58:13;;;;;;;1.60;0.93;;;;;;;;;;5081057;28;20414;-91
2020/12/27 13:00:39;;;;;;;1.97;1.10;;;;;;;;;;5080104;28;20433;-87
2020/12/27 13:03:05;;;;;;;3.08;1.00;;;;;;;;;;5078025;28;20506;-85
2020/12/27 13:05:31;;;;;;;2.43;0.97;;;;;;;;;;5085698;28;20203;-90
2020/12/27 13:07:57;;;;;;;2.30;1.00;;;;;;;;;;5084574;28;20433;-87
2020/12/27 13:10:23;;;;;;;0.90;0.80;;;;;;;;;;5081748;28;20211;-90
2020/12/27 13:12:49;;;;;;;1.70;1.05;;;;;;;;;;5077102;28;20199;-85
2020/12/27 13:15:15;;;;;;;3.80;1.10;;;;;;;;;;5080280;28;20191;-85
2020/12/27 13:17:41;;;;;;;6.63;1.38;;;;;;;;;;5081598;28;20954;-87
2020/12/27 13:20:10;;;;;;;2.10;1.13;;;;;;;;;;5102542;28;20192;-88
2020/12/27 13:22:36;;;;;;;2.40;1.75;;;;;;;;;;5102202;28;20540;-88
2020/12/27 13:25:03;;;;;;;18.58;3.28;;;;;;;;;;5082210;28;20226;-86
2020/12/27 13:27:29;;;;;;;17.02;2.35;;;;;;;;;;5081518;28;20196;-84
2020/12/27 13:29:55;;;;;;;1.80;0.80;;;;;;;;;;5075441;28;20194;-85
2020/12/27 13:32:21;;;;;;;3.33;1.50;;;;;;;;;;5101214;28;20215;-84
2020/12/27 13:34:47;;;;;;;2.20;1.30;;;;;;;;;;5080268;28;20449;-85
2020/12/27 13:37:13;;;;;;;2.27;1.00;;;;;;;;;;5077966;28;20313;-83
2020/12/27 13:39:41;;;;;;;2.58;1.30;;;;;;;;;;5074929;28;20522;-84
2020/12/27 13:42:07;;;;;;;3.15;1.10;;;;;;;;;;5097299;28;20214;-88
2020/12/27 13:44:33;;;;;;;2.27;1.23;;;;;;;;;;5086031;28;20195;-87
2020/12/27 13:46:59;;;;;;;2.00;1.40;;;;;;;;;;5084615;28;20455;-87
2020/12/27 13:49:25;;;;;;;1.42;1.33;;;;;;;;;;5079059;28;20179;-87
2020/12/27 13:51:54;;;;;;;2.65;1.40;;;;;;;;;;5094958;28;20210;-86
2020/12/27 13:54:20;;;;;;;2.20;1.50;;;;;;;;;;5078766;28;20195;-84
2020/12/27 13:56:47;;;;;;;1.60;1.20;;;;;;;;;;5080011;28;20188;-85
2020/12/27 13:59:13;;;;;;;1.95;1.00;;;;;;;;;;5072695;28;20204;-88
2020/12/27 14:01:39;;;;;;;1.93;1.27;;;;;;;;;;5089666;28;20239;-87
2020/12/27 14:04:05;;;;;;;2.75;1.38;;;;;;;;;;5078750;28;20441;-86
2020/12/27 14:06:32;;;;;;;1.70;1.60;;;;;;;;;;5080044;28;20181;-88
2020/12/27 14:08:58;;;;;;;2.20;1.83;;;;;;;;;;5080490;28;20214;-86
2020/12/27 14:11:27;;;;;;;4.75;1.88;;;;;;;;;;5083284;28;20195;-87
2020/12/27 14:13:53;;;;;;;1.45;1.25;;;;;;;;;;5083162;28;20180;-86
2020/12/27 14:16:19;;;;;;;4.03;1.37;;;;;;;;;;5080896;28;20167;-87
2020/12/27 14:18:45;;;;;;;2.33;1.00;;;;;;;;;;5083059;28;20828;-87
2020/12/27 14:21:18;;;;;;;2.03;1.48;;;;;;;;;;5078917;28;20198;-85
2020/12/27 14:23:44;;;;;;;1.40;1.27;;;;;;;;;;5099109;28;20211;-89
2020/12/27 14:26:10;;;;;;;3.10;1.50;;;;;;;;;;5097463;28;20200;-89
2020/12/27 14:28:36;;;;;;;2.35;1.30;;;;;;;;;;5080692;28;20187;-87
2020/12/27 14:31:06;;;;;;;2.65;1.67;;;;;;;;;;5081800;28;20209;-88
2020/12/27 14:33:32;;;;;;;2.15;1.73;;;;;;;;;;5097623;28;20209;-87
2020/12/27 14:36:09;;;;;;;2.22;1.95;;;;;;;;;;5097385;28;20210;-89
2020/12/27 14:38:35;;;;;;;2.10;1.42;;;;;;;;;;5099320;28;20176;-87
2020/12/27 14:41:01;;;;;;;2.67;2.27;;;;;;;;;;5077857;28;20240;-87
2020/12/27 14:43:27;;;;;;;2.45;2.20;;;;;;;;;;5084174;28;20429;-88